createdAt,value
2023-04-13T00:01:01.747Z,97327.19
2023-04-13T00:03:12.269Z,97331.41
2023-04-13T00:05:17.643Z,97326.38
2023-04-13T00:07:23.374Z,97331.34
2023-04-13T00:09:31.156Z,97329.69
2023-04-13T00:11:36.722Z,97329.28
2023-04-13T00:13:47.414Z,97328.59
2023-04-13T00:15:53.896Z,97330.03
2023-04-13T00:17:59.148Z,97336.66
2023-04-13T00:20:08.456Z,97333.00
2023-04-13T00:22:14.006Z,97342.31
2023-04-13T00:24:19.707Z,97331.63
2023-04-13T00:26:25.283Z,97341.75
2023-04-13T00:28:33.333Z,97348.38
2023-04-13T00:30:41.805Z,97345.06
2023-04-13T00:32:48.650Z,97336.75
2023-04-13T00:34:53.766Z,97333.50
2023-04-13T00:36:59.329Z,97334.38
2023-04-13T00:39:04.338Z,97316.72
2023-04-13T00:41:10.325Z,97334.13
2023-04-13T00:43:15.390Z,97321.47
2023-04-13T00:45:22.890Z,97328.47
2023-04-13T00:47:34.728Z,97320.78
2023-04-13T00:49:40.068Z,97335.25
2023-04-13T00:51:46.708Z,97328.88
2023-04-13T00:53:51.881Z,97337.22
2023-04-13T00:55:57.288Z,97340.50
2023-04-13T00:58:02.692Z,97334.16
2023-04-13T01:00:10.844Z,97334.16
2023-04-13T01:02:17.049Z,97350.75
2023-04-13T01:04:25.743Z,97342.72
2023-04-13T01:06:42.180Z,97352.66
2023-04-13T01:08:54.931Z,97350.09
2023-04-13T01:11:07.137Z,97348.41
2023-04-13T01:13:22.901Z,97343.97
2023-04-13T01:15:39.497Z,97344.22
2023-04-13T01:17:52.547Z,97347.22
2023-04-13T01:20:12.067Z,97341.31
2023-04-13T01:22:18.842Z,97354.22
2023-04-13T01:24:43.355Z,97342.84
2023-04-13T01:27:00.111Z,97341.53
2023-04-13T01:29:08.934Z,97325.22
2023-04-13T01:31:15.822Z,97330.00
2023-04-13T01:33:22.136Z,97331.75
2023-04-13T01:35:29.483Z,97332.84
2023-04-13T01:37:36.068Z,97332.97
2023-04-13T01:39:41.336Z,97329.03
2023-04-13T01:41:57.919Z,97327.31
2023-04-13T01:44:03.758Z,97330.56
2023-04-13T01:46:16.391Z,97328.09
2023-04-13T01:48:38.298Z,97335.44
2023-04-13T01:50:57.879Z,97333.94
2023-04-13T01:53:26.930Z,97338.84
2023-04-13T01:55:33.335Z,97330.50
2023-04-13T01:57:41.074Z,97330.19
2023-04-13T01:59:48.485Z,97332.44
2023-04-13T02:01:59.581Z,97329.88
2023-04-13T02:04:05.533Z,97333.28
2023-04-13T02:06:11.757Z,97331.69
2023-04-13T02:08:20.937Z,97333.91
2023-04-13T02:10:26.910Z,97326.38
2023-04-13T02:12:34.664Z,97321.06
2023-04-13T02:14:39.697Z,97326.63
2023-04-13T02:16:44.750Z,97327.16
2023-04-13T02:18:54.910Z,97326.81
2023-04-13T02:21:08.605Z,97328.25
2023-04-13T02:23:15.117Z,97324.84
2023-04-13T02:25:22.548Z,97331.25
2023-04-13T02:27:28.969Z,97339.22
2023-04-13T02:29:34.521Z,97342.47
2023-04-13T02:31:45.368Z,97345.63
2023-04-13T02:33:51.917Z,97351.28
2023-04-13T02:36:00.223Z,97352.09
2023-04-13T02:38:06.821Z,97357.06
2023-04-13T02:40:13.148Z,97353.66
2023-04-13T02:42:18.196Z,97351.34
2023-04-13T02:44:23.908Z,97340.56
2023-04-13T02:46:35.763Z,97340.56
2023-04-13T02:48:46.182Z,97329.63
2023-04-13T02:50:52.758Z,97332.63
2023-04-13T02:53:04.201Z,97336.41
2023-04-13T02:55:12.261Z,97337.00
2023-04-13T02:57:34.384Z,97324.34
2023-04-13T02:59:40.977Z,97316.94
2023-04-13T03:01:48.506Z,97325.41
2023-04-13T03:03:55.451Z,97326.38
2023-04-13T03:06:04.465Z,97330.59
2023-04-13T03:08:27.829Z,97324.72
2023-04-13T03:10:57.503Z,97326.63
2023-04-13T03:13:03.519Z,97323.25
2023-04-13T03:15:11.825Z,97323.16
2023-04-13T03:17:19.862Z,97324.72
2023-04-13T03:19:25.741Z,97326.06
2023-04-13T03:21:31.122Z,97318.66
2023-04-13T03:23:55.796Z,97323.41
2023-04-13T03:26:01.146Z,97324.53
2023-04-13T03:28:06.330Z,97321.00
2023-04-13T03:30:18.996Z,97319.38
2023-04-13T03:32:32.020Z,97314.72
2023-04-13T03:34:44.275Z,97329.88
2023-04-13T03:36:53.124Z,97330.97
2023-04-13T03:39:02.037Z,97330.41
2023-04-13T03:41:12.777Z,97336.16
2023-04-13T03:43:19.983Z,97332.69
2023-04-13T03:45:33.811Z,97334.94
2023-04-13T03:47:42.314Z,97343.06
2023-04-13T03:49:48.472Z,97336.94
2023-04-13T03:51:53.665Z,97337.38
2023-04-13T03:54:02.094Z,97338.06
2023-04-13T03:56:08.680Z,97337.88
2023-04-13T03:58:14.453Z,97335.22
2023-04-13T04:00:20.592Z,97340.84
2023-04-13T04:02:39.534Z,97339.75
2023-04-13T04:04:44.898Z,97342.19
2023-04-13T04:06:50.009Z,97347.06
2023-04-13T04:08:56.590Z,97345.28
2023-04-13T04:11:12.957Z,97350.13
2023-04-13T04:13:18.035Z,97350.13
2023-04-13T04:15:27.168Z,97351.56
2023-04-13T04:17:40.029Z,97354.75
2023-04-13T04:19:45.414Z,97357.78
2023-04-13T04:21:53.300Z,97353.53
2023-04-13T04:24:00.919Z,97365.97
2023-04-13T04:26:07.604Z,97360.78
2023-04-13T04:28:23.903Z,97360.63
2023-04-13T04:30:29.825Z,97365.56
2023-04-13T04:32:36.709Z,97360.47
2023-04-13T04:34:48.329Z,97369.25
2023-04-13T04:36:58.007Z,97375.97
2023-04-13T04:39:10.077Z,97378.34
2023-04-13T04:41:24.005Z,97379.91
2023-04-13T04:43:35.935Z,97383.09
2023-04-13T04:45:43.736Z,97387.22
2023-04-13T04:47:53.241Z,97384.72
2023-04-13T04:50:03.615Z,97384.44
2023-04-13T04:52:15.090Z,97393.59
2023-04-13T04:54:21.076Z,97406.81
2023-04-13T04:56:26.277Z,97409.31
2023-04-13T04:58:35.232Z,97407.53
2023-04-13T05:00:40.601Z,97393.44
2023-04-13T05:02:50.957Z,97406.75
2023-04-13T05:04:57.609Z,97415.84
2023-04-13T05:07:03.380Z,97409.16
2023-04-13T05:09:15.223Z,97414.03
2023-04-13T05:11:26.018Z,97417.44
2023-04-13T05:13:35.382Z,97418.97
2023-04-13T05:15:54.466Z,97428.03
2023-04-13T05:17:59.864Z,97427.88
2023-04-13T05:20:09.562Z,97423.69
2023-04-13T05:22:24.384Z,97427.00
2023-04-13T05:24:36.412Z,97428.47
2023-04-13T05:26:47.939Z,97431.63
2023-04-13T05:29:01.404Z,97425.88
2023-04-13T05:31:12.262Z,97430.81
2023-04-13T05:33:21.351Z,97446.59
2023-04-13T05:35:32.080Z,97438.97
2023-04-13T05:37:40.324Z,97440.66
2023-04-13T05:39:50.518Z,97441.41
2023-04-13T05:41:59.309Z,97438.97
2023-04-13T05:44:08.987Z,97446.41
2023-04-13T05:46:16.148Z,97451.34
2023-04-13T05:48:22.027Z,97455.34
2023-04-13T05:50:31.109Z,97452.97
2023-04-13T05:52:36.306Z,97461.31
2023-04-13T05:54:41.659Z,97472.97
2023-04-13T05:56:47.387Z,97468.69
2023-04-13T05:58:52.535Z,97462.75
2023-04-13T06:01:04.395Z,97462.59
2023-04-13T06:03:11.144Z,97464.13
2023-04-13T06:05:17.138Z,97470.88
2023-04-13T06:07:22.506Z,97457.47
2023-04-13T06:09:28.612Z,97459.97
2023-04-13T06:11:33.934Z,97465.81
2023-04-13T06:13:41.445Z,97465.66
2023-04-13T06:15:46.501Z,97465.66
2023-04-13T06:17:56.903Z,97475.59
2023-04-13T06:20:02.313Z,97473.81
2023-04-13T06:22:07.622Z,97472.97
2023-04-13T06:24:17.730Z,97473.75
2023-04-13T06:26:23.566Z,97470.88
2023-04-13T06:28:33.415Z,97471.66
2023-04-13T06:30:38.786Z,97472.38
2023-04-13T06:32:48.883Z,97471.25
2023-04-13T06:34:59.508Z,97475.97
2023-04-13T06:37:09.872Z,97478.94
2023-04-13T06:39:27.062Z,97469.56
2023-04-13T06:41:37.366Z,97467.63
2023-04-13T06:44:01.789Z,97470.03
2023-04-13T06:46:11.793Z,97471.59
2023-04-13T06:48:18.899Z,97479.19
2023-04-13T06:50:29.364Z,97469.97
2023-04-13T06:52:38.187Z,97472.34
2023-04-13T06:54:43.237Z,97479.84
2023-04-13T06:57:02.172Z,97480.16
2023-04-13T06:59:08.517Z,97480.28
2023-04-13T07:01:14.017Z,97475.16
2023-04-13T07:03:19.890Z,97483.66
2023-04-13T07:05:28.098Z,97484.34
2023-04-13T07:07:38.920Z,97484.34
2023-04-13T07:09:44.571Z,97496.72
2023-04-13T07:11:49.929Z,97488.69
2023-04-13T07:13:55.734Z,97497.03
2023-04-13T07:16:04.029Z,97498.56
2023-04-13T07:18:13.094Z,97497.00
2023-04-13T07:20:18.854Z,97498.66
2023-04-13T07:22:32.744Z,97503.16
2023-04-13T07:24:38.689Z,97507.94
2023-04-13T07:26:47.431Z,97501.31
2023-04-13T07:28:52.789Z,97497.13
2023-04-13T07:31:00.186Z,97504.66
2023-04-13T07:33:05.523Z,97500.25
2023-04-13T07:35:12.186Z,97501.00
2023-04-13T07:37:18.943Z,97500.38
2023-04-13T07:39:27.153Z,97501.00
2023-04-13T07:41:33.518Z,97504.09
2023-04-13T07:43:42.261Z,97501.78
2023-04-13T07:45:49.474Z,97509.97
2023-04-13T07:47:55.339Z,97504.75
2023-04-13T07:50:00.697Z,97514.78
2023-04-13T07:52:07.155Z,97510.94
2023-04-13T07:54:16.481Z,97509.00
2023-04-13T07:56:26.319Z,97510.31
2023-04-13T07:58:32.068Z,97521.88
2023-04-13T08:00:37.253Z,97518.47
2023-04-13T08:02:44.372Z,97526.41
2023-04-13T08:04:55.208Z,97523.56
2023-04-13T08:07:07.422Z,97531.09
2023-04-13T08:09:12.804Z,97521.72
2023-04-13T08:11:19.514Z,97535.06
2023-04-13T08:13:31.570Z,97537.34
2023-04-13T08:15:37.119Z,97530.81
2023-04-13T08:17:43.615Z,97530.16
2023-04-13T08:19:48.722Z,97527.88
2023-04-13T08:21:54.756Z,97521.00
2023-04-13T08:23:59.897Z,97520.97
2023-04-13T08:26:06.366Z,97528.59
2023-04-13T08:28:11.553Z,97525.38
2023-04-13T08:30:20.381Z,97524.44
2023-04-13T08:32:34.892Z,97526.28
2023-04-13T08:34:40.586Z,97525.00
2023-04-13T08:36:46.289Z,97510.91
2023-04-13T08:38:51.979Z,97522.47
2023-04-13T08:40:59.286Z,97520.06
2023-04-13T08:43:08.346Z,97517.84
2023-04-13T08:45:14.820Z,97509.72
2023-04-13T08:47:29.352Z,97523.53
2023-04-13T08:49:35.962Z,97522.50
2023-04-13T08:51:49.552Z,97526.44
2023-04-13T08:53:56.234Z,97512.75
2023-04-13T08:56:07.508Z,97522.94
2023-04-13T08:58:16.505Z,97529.31
2023-04-13T09:00:23.991Z,97539.84
2023-04-13T09:02:49.308Z,97534.22
2023-04-13T09:05:16.761Z,97529.81
2023-04-13T09:07:34.916Z,97535.22
2023-04-13T09:09:48.600Z,97535.38
2023-04-13T09:11:54.055Z,97536.03
2023-04-13T09:13:59.197Z,97533.41
2023-04-13T09:16:05.530Z,97540.13
2023-04-13T09:18:25.216Z,97542.41
2023-04-13T09:20:37.094Z,97537.41
2023-04-13T09:22:42.900Z,97549.50
2023-04-13T09:24:48.728Z,97534.56
2023-04-13T09:26:53.945Z,97537.63
2023-04-13T09:28:59.991Z,97540.78
2023-04-13T09:31:06.670Z,97537.38
2023-04-13T09:33:16.350Z,97542.53
2023-04-13T09:35:24.119Z,97543.59
2023-04-13T09:37:31.035Z,97558.09
2023-04-13T09:39:37.461Z,97555.19
2023-04-13T09:41:46.861Z,97555.78
2023-04-13T09:43:51.978Z,97562.16
2023-04-13T09:45:57.032Z,97558.75
2023-04-13T09:48:03.555Z,97556.94
2023-04-13T09:50:19.646Z,97556.66
2023-04-13T09:52:27.881Z,97553.25
2023-04-13T09:54:33.101Z,97556.34
2023-04-13T09:56:52.924Z,97560.44
2023-04-13T09:58:58.855Z,97558.75
2023-04-13T10:01:04.406Z,97562.97
2023-04-13T10:03:14.110Z,97550.38
2023-04-13T10:05:19.956Z,97566.44
2023-04-13T10:07:30.875Z,97568.50
2023-04-13T10:09:36.812Z,97569.06
2023-04-13T10:11:49.506Z,97561.47
2023-04-13T10:14:02.885Z,97582.25
2023-04-13T10:16:30.340Z,97569.41
2023-04-13T10:18:49.787Z,97570.53
2023-04-13T10:20:56.015Z,97566.44
2023-04-13T10:23:04.306Z,97574.31
2023-04-13T10:25:16.206Z,97564.66
2023-04-13T10:27:31.235Z,97563.84
2023-04-13T10:29:36.500Z,97572.81
2023-04-13T10:31:43.179Z,97570.19
2023-04-13T10:33:51.689Z,97580.97
2023-04-13T10:36:03.166Z,97580.22
2023-04-13T10:38:11.698Z,97582.75
2023-04-13T10:40:17.503Z,97575.94
2023-04-13T10:42:22.521Z,97582.16
2023-04-13T10:44:27.935Z,97578.38
2023-04-13T10:46:34.398Z,97592.38
2023-04-13T10:48:40.031Z,97586.59
2023-04-13T10:50:45.099Z,97565.53
2023-04-13T10:53:05.050Z,97578.31
2023-04-13T10:55:14.821Z,97579.28
2023-04-13T10:57:19.923Z,97583.59
2023-04-13T10:59:25.402Z,97574.56
2023-04-13T11:01:32.070Z,97570.19
2023-04-13T11:03:38.190Z,97572.94
2023-04-13T11:05:45.275Z,97567.06
2023-04-13T11:07:55.056Z,97578.81
2023-04-13T11:10:06.126Z,97578.53
2023-04-13T11:12:15.246Z,97574.72
2023-04-13T11:14:24.370Z,97570.34
2023-04-13T11:16:29.512Z,97567.88
2023-04-13T11:18:35.349Z,97579.72
2023-04-13T11:20:42.266Z,97575.63
2023-04-13T11:22:47.799Z,97578.94
2023-04-13T11:24:54.353Z,97570.97
2023-04-13T11:26:59.368Z,97570.66
2023-04-13T11:29:07.492Z,97589.88
2023-04-13T11:31:12.902Z,97585.13
2023-04-13T11:33:27.794Z,97589.38
2023-04-13T11:35:33.003Z,97584.00
2023-04-13T11:37:41.798Z,97582.88
2023-04-13T11:39:47.167Z,97585.88
2023-04-13T11:41:52.435Z,97574.53
2023-04-13T11:43:58.009Z,97571.09
2023-04-13T11:46:06.248Z,97582.59
2023-04-13T11:48:11.546Z,97569.59
2023-04-13T11:50:17.801Z,97560.16
2023-04-13T11:52:23.295Z,97564.34
2023-04-13T11:54:28.869Z,97569.84
2023-04-13T11:56:34.646Z,97574.16
2023-04-13T11:58:42.784Z,97560.16
2023-04-13T12:00:48.409Z,97560.75
2023-04-13T12:03:02.270Z,97560.44
2023-04-13T12:05:10.130Z,97559.97
2023-04-13T12:07:16.643Z,97562.28
2023-04-13T12:09:26.863Z,97553.25
2023-04-13T12:11:46.725Z,97553.88
2023-04-13T12:14:07.200Z,97545.19
2023-04-13T12:17:01.739Z,97541.16
2023-04-13T12:18:59.914Z,97546.84
2023-04-13T12:21:06.022Z,97549.97
2023-04-13T12:23:23.275Z,97538.91
2023-04-13T12:25:35.544Z,97544.88
2023-04-13T12:27:43.344Z,97545.63
2023-04-13T12:29:49.133Z,97553.69
2023-04-13T12:31:54.410Z,97545.97
2023-04-13T12:34:02.124Z,97545.59
2023-04-13T12:36:11.430Z,97554.66
2023-04-13T12:38:16.613Z,97556.06
2023-04-13T12:40:21.624Z,97561.69
2023-04-13T12:42:26.611Z,97576.72
2023-04-13T12:44:33.799Z,97576.81
2023-04-13T12:46:39.902Z,97566.94
2023-04-13T12:48:44.960Z,97572.78
2023-04-13T12:50:52.790Z,97561.50
2023-04-13T12:52:57.774Z,97563.88
2023-04-13T12:55:03.119Z,97569.69
2023-04-13T12:57:08.263Z,97570.84
2023-04-13T12:59:14.111Z,97568.56
2023-04-13T13:01:19.273Z,97566.66
2023-04-13T13:03:24.663Z,97565.78
2023-04-13T13:05:30.238Z,97562.94
2023-04-13T13:07:37.927Z,97577.59
2023-04-13T13:09:43.273Z,97580.97
2023-04-13T13:11:48.343Z,97591.13
2023-04-13T13:13:53.537Z,97607.94
2023-04-13T13:15:58.639Z,97611.84
2023-04-13T13:18:04.608Z,97617.47
2023-04-13T13:20:12.232Z,97624.13
2023-04-13T13:22:17.238Z,97614.03
2023-04-13T13:24:25.106Z,97615.50
2023-04-13T13:26:36.658Z,97613.72
2023-04-13T13:28:45.230Z,97610.47
2023-04-13T13:30:50.396Z,97608.22
2023-04-13T13:32:55.620Z,97613.69
2023-04-13T13:35:00.687Z,97602.91
2023-04-13T13:37:05.982Z,97592.72
2023-04-13T13:39:12.632Z,97595.00
2023-04-13T13:41:20.463Z,97592.78
2023-04-13T13:43:25.665Z,97594.38
2023-04-13T13:45:30.767Z,97588.63
2023-04-13T13:47:38.872Z,97594.38
2023-04-13T13:49:45.652Z,97589.63
2023-04-13T13:51:56.650Z,97589.69
2023-04-13T13:54:04.573Z,97595.88
2023-04-13T13:56:11.812Z,97592.91
2023-04-13T13:58:19.758Z,97596.84
2023-04-13T14:00:26.049Z,97586.31
2023-04-13T14:02:31.218Z,97595.13
2023-04-13T14:04:36.639Z,97593.69
2023-04-13T14:06:41.810Z,97599.50
2023-04-13T14:08:46.929Z,97611.53
2023-04-13T14:10:52.161Z,97642.84
2023-04-13T14:12:57.153Z,97647.69
2023-04-13T14:15:04.995Z,97668.22
2023-04-13T14:17:10.005Z,97688.53
2023-04-13T14:19:15.138Z,97703.25
2023-04-13T14:21:21.887Z,97710.56
2023-04-13T14:23:26.972Z,97702.84
2023-04-13T14:25:32.259Z,97698.72
2023-04-13T14:27:37.797Z,97698.31
2023-04-13T14:29:42.817Z,97712.22
2023-04-13T14:31:50.638Z,97709.25
2023-04-13T14:33:55.804Z,97713.69
2023-04-13T14:36:01.238Z,97713.13
2023-04-13T14:38:06.244Z,97708.88
2023-04-13T14:40:17.452Z,97709.53
2023-04-13T14:42:22.615Z,97712.22
2023-04-13T14:44:27.740Z,97712.94
2023-04-13T14:46:32.791Z,97709.91
2023-04-13T14:48:40.504Z,97710.25
2023-04-13T14:50:45.697Z,97705.56
2023-04-13T14:52:50.891Z,97704.44
2023-04-13T14:54:58.823Z,97708.91
2023-04-13T14:57:04.846Z,97717.25
2023-04-13T14:59:09.990Z,97725.53
2023-04-13T15:01:22.225Z,97725.44
2023-04-13T15:03:28.781Z,97730.66
2023-04-13T15:05:39.908Z,97743.84
2023-04-13T15:07:46.286Z,97760.63
2023-04-13T15:09:51.336Z,97771.97
2023-04-13T15:11:56.370Z,97772.78
2023-04-13T15:14:03.825Z,97792.72
2023-04-13T15:16:09.727Z,97784.16
2023-04-13T15:18:14.888Z,97784.19
2023-04-13T15:20:20.860Z,97783.56
2023-04-13T15:22:28.470Z,97779.69
2023-04-13T15:24:33.495Z,97779.13
2023-04-13T15:26:42.515Z,97771.28
2023-04-13T15:28:47.610Z,97774.44
2023-04-13T15:30:53.792Z,97773.78
2023-04-13T15:33:02.495Z,97776.66
2023-04-13T15:35:08.766Z,97765.97
2023-04-13T15:37:14.068Z,97768.84
2023-04-13T15:39:21.694Z,97767.84
2023-04-13T15:41:27.711Z,97776.13
2023-04-13T15:43:32.789Z,97774.19
2023-04-13T15:45:38.294Z,97785.25
2023-04-13T15:47:44.014Z,97783.56
2023-04-13T15:49:49.072Z,97788.00
2023-04-13T15:51:54.343Z,97783.56
2023-04-13T15:54:00.181Z,97783.81
2023-04-13T15:56:11.632Z,97780.34
2023-04-13T15:58:17.106Z,97779.88
2023-04-13T16:00:22.968Z,97777.91
2023-04-13T16:02:28.347Z,97783.91
2023-04-13T16:04:33.825Z,97786.09
2023-04-13T16:06:39.869Z,97794.25
2023-04-13T16:08:45.206Z,97794.06
2023-04-13T16:10:51.129Z,97787.91
2023-04-13T16:12:58.946Z,97804.38
2023-04-13T16:15:04.494Z,97802.84
2023-04-13T16:17:09.940Z,97795.63
2023-04-13T16:19:18.221Z,97803.19
2023-04-13T16:21:23.813Z,97798.72
2023-04-13T16:23:29.837Z,97810.84
2023-04-13T16:25:35.685Z,97802.97
2023-04-13T16:27:40.881Z,97797.94
2023-04-13T16:29:48.463Z,97797.38
2023-04-13T16:31:53.746Z,97789.53
2023-04-13T16:34:06.907Z,97790.00
2023-04-13T16:36:16.951Z,97793.56
2023-04-13T16:38:22.017Z,97787.47
2023-04-13T16:40:27.009Z,97789.78
2023-04-13T16:42:32.013Z,97790.22
2023-04-13T16:44:37.015Z,97788.13
2023-04-13T16:46:44.677Z,97788.66
2023-04-13T16:48:49.698Z,97794.28
2023-04-13T16:51:01.121Z,97795.59
2023-04-13T16:53:06.424Z,97790.91
2023-04-13T16:55:15.379Z,97791.16
2023-04-13T16:57:20.776Z,97794.91
2023-04-13T16:59:25.913Z,97788.94
2023-04-13T17:01:31.003Z,97797.13
2023-04-13T17:03:39.392Z,97789.56
2023-04-13T17:05:44.465Z,97794.78
2023-04-13T17:07:50.376Z,97799.75
2023-04-13T17:09:55.463Z,97797.22
2023-04-13T17:12:00.488Z,97802.91
2023-04-13T17:14:05.545Z,97804.69
2023-04-13T17:16:12.078Z,97799.72
2023-04-13T17:18:18.342Z,97812.97
2023-04-13T17:20:26.660Z,97800.31
2023-04-13T17:22:32.096Z,97809.75
2023-04-13T17:24:37.218Z,97803.97
2023-04-13T17:26:42.225Z,97815.13
2023-04-13T17:28:47.396Z,97820.41
2023-04-13T17:30:52.504Z,97820.94
2023-04-13T17:32:57.958Z,97822.63
2023-04-13T17:35:03.160Z,97819.81
2023-04-13T17:37:10.744Z,97832.03
2023-04-13T17:39:15.936Z,97832.56
2023-04-13T17:41:21.044Z,97838.13
2023-04-13T17:43:26.119Z,97842.25
2023-04-13T17:45:31.317Z,97847.75
2023-04-13T17:47:36.436Z,97846.41
2023-04-13T17:49:41.526Z,97853.47
2023-04-13T17:51:50.007Z,97842.22
2023-04-13T17:53:57.571Z,97845.84
2023-04-13T17:56:02.568Z,97840.47
2023-04-13T17:58:08.151Z,97841.94
2023-04-13T18:00:16.036Z,97849.47
2023-04-13T18:02:21.636Z,97851.56
2023-04-13T18:04:26.980Z,97853.72
2023-04-13T18:06:32.386Z,97859.22
2023-04-13T18:08:37.522Z,97860.66
2023-04-13T18:10:45.203Z,97855.22
2023-04-13T18:12:50.386Z,97855.69
2023-04-13T18:14:55.368Z,97859.34
2023-04-13T18:17:00.435Z,97861.97
2023-04-13T18:19:05.493Z,97866.16
2023-04-13T18:21:10.833Z,97867.72
2023-04-13T18:23:15.842Z,97869.66
2023-04-13T18:25:20.860Z,97875.72
2023-04-13T18:27:28.510Z,97880.97
2023-04-13T18:29:33.709Z,97882.00
2023-04-13T18:31:39.380Z,97878.22
2023-04-13T18:33:44.964Z,97893.19
2023-04-13T18:35:50.579Z,97898.09
2023-04-13T18:37:55.824Z,97898.34
2023-04-13T18:40:00.834Z,97903.53
2023-04-13T18:42:07.762Z,97906.13
2023-04-13T18:44:15.866Z,97912.91
2023-04-13T18:46:20.993Z,97915.56
2023-04-13T18:48:26.042Z,97914.22
2023-04-13T18:50:31.636Z,97920.19
2023-04-13T18:52:36.851Z,97922.59
2023-04-13T18:54:41.840Z,97924.41
2023-04-13T18:56:46.834Z,97921.19
2023-04-13T18:58:52.232Z,97938.13
2023-04-13T19:00:59.845Z,97937.50
2023-04-13T19:03:04.954Z,97937.44
2023-04-13T19:05:13.405Z,97935.78
2023-04-13T19:07:18.609Z,97941.66
2023-04-13T19:09:23.616Z,97947.66
2023-04-13T19:11:29.221Z,97951.94
2023-04-13T19:13:34.230Z,97950.31
2023-04-13T19:15:40.130Z,97951.91
2023-04-13T19:17:50.446Z,97956.13
2023-04-13T19:19:55.793Z,97963.75
2023-04-13T19:22:00.785Z,97965.44
2023-04-13T19:24:06.546Z,97960.50
2023-04-13T19:26:11.936Z,97955.56
2023-04-13T19:28:16.993Z,97959.88
2023-04-13T19:30:22.582Z,97957.44
2023-04-13T19:32:27.830Z,97950.81
2023-04-13T19:34:35.745Z,97962.47
2023-04-13T19:36:41.973Z,97959.94
2023-04-13T19:38:47.269Z,97964.03
2023-04-13T19:40:52.553Z,97952.41
2023-04-13T19:42:57.955Z,97954.91
2023-04-13T19:45:02.997Z,97951.47
2023-04-13T19:47:08.106Z,97949.88
2023-04-13T19:49:13.686Z,97953.91
2023-04-13T19:51:21.738Z,97951.47
2023-04-13T19:53:26.735Z,97954.03
2023-04-13T19:55:31.984Z,97949.78
2023-04-13T19:57:40.426Z,97953.16
2023-04-13T19:59:45.693Z,97959.88
2023-04-13T20:01:51.143Z,97950.81
2023-04-13T20:03:56.408Z,97959.16
2023-04-13T20:06:03.024Z,97960.88
2023-04-13T20:08:10.642Z,97959.97
2023-04-13T20:10:15.864Z,97950.03
2023-04-13T20:12:21.214Z,97945.06
2023-04-13T20:14:26.515Z,97936.63
2023-04-13T20:16:31.647Z,97929.22
2023-04-13T20:18:36.870Z,97934.25
2023-04-13T20:20:42.505Z,97935.91
2023-04-13T20:22:47.661Z,97940.91
2023-04-13T20:24:55.281Z,97934.22
2023-04-13T20:27:00.703Z,97942.53
2023-04-13T20:29:07.797Z,97945.00
2023-04-13T20:31:13.061Z,97941.84
2023-04-13T20:33:18.202Z,97944.41
2023-04-13T20:35:24.050Z,97942.03
2023-04-13T20:37:29.311Z,97946.25
2023-04-13T20:39:34.336Z,97951.88
2023-04-13T20:41:42.167Z,97955.97
2023-04-13T20:43:49.926Z,97955.25
2023-04-13T20:45:57.508Z,97947.78
2023-04-13T20:48:48.371Z,97951.97
2023-04-13T20:50:28.514Z,97952.16
2023-04-13T20:52:34.152Z,97951.22
2023-04-13T20:54:39.175Z,97955.38
2023-04-13T20:56:47.533Z,97953.75
2023-04-13T20:58:56.144Z,97956.41
2023-04-13T21:01:01.509Z,97956.38
2023-04-13T21:03:09.360Z,97958.03
2023-04-13T21:05:14.726Z,97963.84
2023-04-13T21:07:19.833Z,97967.91
2023-04-13T21:09:24.838Z,97966.31
2023-04-13T21:11:30.465Z,97967.16
2023-04-13T21:13:38.396Z,97967.22
2023-04-13T21:15:43.416Z,97970.47
2023-04-13T21:17:49.308Z,97969.66
2023-04-13T21:19:54.519Z,97957.97
2023-04-13T21:22:00.084Z,97965.50
2023-04-13T21:24:05.570Z,97968.88
2023-04-13T21:26:10.996Z,97969.72
2023-04-13T21:28:16.257Z,97967.28
2023-04-13T21:30:23.865Z,97976.38
2023-04-13T21:32:29.756Z,97974.69
2023-04-13T21:34:35.060Z,97973.00
2023-04-13T21:38:48.314Z,97973.84
2023-04-13T21:40:53.407Z,97976.38
2023-04-13T21:42:58.405Z,97976.38
2023-04-13T21:45:03.476Z,97974.75
2023-04-13T21:47:11.084Z,97973.03
2023-04-13T21:49:16.281Z,97979.66
2023-04-13T21:51:21.355Z,97971.31
2023-04-13T21:53:26.468Z,97972.25
2023-04-13T21:55:31.779Z,97969.84
2023-04-13T21:57:36.769Z,97969.06
2023-04-13T21:59:41.782Z,97979.75
2023-04-13T22:01:47.025Z,97977.28
2023-04-13T22:03:55.583Z,97975.63
2023-04-13T22:06:01.278Z,97971.53
2023-04-13T22:08:06.322Z,97970.69
2023-04-13T22:10:13.025Z,97964.78
2023-04-13T22:12:18.283Z,97974.69
2023-04-13T22:14:26.240Z,97963.28
2023-04-13T22:16:31.339Z,97964.88
2023-04-13T22:18:36.891Z,97961.56
2023-04-13T22:20:44.882Z,97954.09
2023-04-13T22:22:49.890Z,97950.88
2023-04-13T22:24:55.785Z,97948.34
2023-04-13T22:27:01.203Z,97945.81
2023-04-13T22:29:07.236Z,97946.72
2023-04-13T22:31:14.655Z,97945.19
2023-04-13T22:33:19.703Z,97941.91
2023-04-13T22:35:24.752Z,97941.97
2023-04-13T22:37:35.579Z,97946.91
2023-04-13T22:39:40.655Z,97951.03
2023-04-13T22:41:45.656Z,97955.22
2023-04-13T22:43:50.750Z,97958.59
2023-04-13T22:46:02.558Z,97963.53
2023-04-13T22:48:08.591Z,97966.88
2023-04-13T22:50:14.702Z,97968.53
2023-04-13T22:52:21.142Z,97964.41
2023-04-13T22:54:29.083Z,97971.84
2023-04-13T22:56:34.225Z,97973.50
2023-04-13T22:58:39.219Z,97974.25
2023-04-13T23:00:44.742Z,97977.50
2023-04-13T23:02:53.033Z,97968.31
2023-04-13T23:04:58.595Z,97973.13
2023-04-13T23:07:03.722Z,97972.31
2023-04-13T23:09:08.736Z,97971.50
2023-04-13T23:11:16.670Z,97983.03
2023-04-13T23:13:21.938Z,97981.31
2023-04-13T23:15:27.240Z,97985.44
2023-04-13T23:17:32.319Z,97987.88
2023-04-13T23:19:37.665Z,97987.81
2023-04-13T23:21:44.178Z,97987.84
2023-04-13T23:23:49.453Z,97994.47
2023-04-13T23:25:55.203Z,97994.50
2023-04-13T23:28:02.824Z,97996.16
2023-04-13T23:30:10.687Z,98000.31
2023-04-13T23:32:16.072Z,98000.31
2023-04-13T23:34:21.141Z,97991.28
2023-04-13T23:36:26.561Z,98001.28
2023-04-13T23:38:31.918Z,97991.34
2023-04-13T23:40:37.595Z,97996.34
2023-04-13T23:42:42.621Z,97991.41
2023-04-13T23:44:50.655Z,97991.44
2023-04-13T23:46:55.751Z,97994.75
2023-04-13T23:49:01.150Z,97993.94
2023-04-13T23:51:07.388Z,97996.47
2023-04-13T23:53:12.428Z,97990.69
2023-04-13T23:55:17.672Z,97981.53
2023-04-13T23:57:22.685Z,97983.25
2023-04-13T23:59:27.794Z,97971.63
